Time;durP1;ratioP1;P1;durP2;ratioP2;P2;SDS_P1;SDS_P2;PMS_P1;PMS_P2;Temp;Humidity;BMP_temperature;BMP_pressure;BME280_temperature;BME280_humidity;BME280_pressure;Samples;Min_cycle;Max_cycle;Signal;HPM_P1;HPM_P2
2022/09/13 00:00:01;;;;;;;1.7;1.2;;;;;;;;;;;;;
2022/09/13 00:02:26;;;;;;;1.5;1.1;;;;;;;;;;;;;
2022/09/13 00:04:53;;;;;;;2.1;1.3;;;;;;;;;;;;;
2022/09/13 00:07:18;;;;;;;2;1;;;;;;;;;;;;;
2022/09/13 00:09:45;;;;;;;1.2;1.1;;;;;;;;;;;;;
2022/09/13 00:12:10;;;;;;;1.6;1;;;;;;;;;;;;;
2022/09/13 00:14:37;;;;;;;3;1.3;;;;;;;;;;;;;
2022/09/13 00:17:02;;;;;;;1.9;1.1;;;;;;;;;;;;;
2022/09/13 00:19:28;;;;;;;2.9;1.2;;;;;;;;;;;;;
2022/09/13 00:21:53;;;;;;;1.2;1.1;;;;;;;;;;;;;
2022/09/13 00:24:19;;;;;;;4.2;1.3;;;;;;;;;;;;;
2022/09/13 00:26:44;;;;;;;2.5;1.3;;;;;;;;;;;;;
2022/09/13 00:29:10;;;;;;;2;1;;;;;;;;;;;;;
2022/09/13 00:31:35;;;;;;;2.5;1.4;;;;;;;;;;;;;
2022/09/13 00:34:02;;;;;;;1.1;1;;;;;;;;;;;;;
2022/09/13 00:36:27;;;;;;;1.4;1.1;;;;;;;;;;;;;
2022/09/13 00:38:53;;;;;;;0.9;0.9;;;;;;;;;;;;;
2022/09/13 00:41:18;;;;;;;1.6;0.9;;;;;;;;;;;;;
2022/09/13 00:43:43;;;;;;;1.4;1;;;;;;;;;;;;;
2022/09/13 00:46:08;;;;;;;2.5;1.2;;;;;;;;;;;;;
2022/09/13 00:48:33;;;;;;;1.6;1.2;;;;;;;;;;;;;
2022/09/13 00:50:58;;;;;;;0.9;0.9;;;;;;;;;;;;;
2022/09/13 00:53:24;;;;;;;1;0.9;;;;;;;;;;;;;
2022/09/13 00:55:49;;;;;;;1.6;1.1;;;;;;;;;;;;;
2022/09/13 00:58:14;;;;;;;1.5;1.2;;;;;;;;;;;;;
2022/09/13 01:00:39;;;;;;;1.9;1;;;;;;;;;;;;;
2022/09/13 01:03:06;;;;;;;1.2;0.9;;;;;;;;;;;;;
2022/09/13 01:05:31;;;;;;;1.7;1;;;;;;;;;;;;;
2022/09/13 01:07:56;;;;;;;1;1;;;;;;;;;;;;;
2022/09/13 01:10:22;;;;;;;1.7;1;;;;;;;;;;;;;
2022/09/13 01:12:47;;;;;;;1.1;1;;;;;;;;;;;;;
2022/09/13 01:15:12;;;;;;;1.2;0.9;;;;;;;;;;;;;
2022/09/13 01:17:38;;;;;;;1.8;1.1;;;;;;;;;;;;;
2022/09/13 01:20:02;;;;;;;2.3;1.1;;;;;;;;;;;;;
2022/09/13 01:22:27;;;;;;;2;1.1;;;;;;;;;;;;;
2022/09/13 01:24:53;;;;;;;2;0.8;;;;;;;;;;;;;
2022/09/13 01:27:18;;;;;;;1.1;0.9;;;;;;;;;;;;;
2022/09/13 01:29:43;;;;;;;0.8;0.8;;;;;;;;;;;;;
2022/09/13 01:32:09;;;;;;;1.7;1;;;;;;;;;;;;;
2022/09/13 01:34:34;;;;;;;1.5;0.9;;;;;;;;;;;;;
2022/09/13 01:37:01;;;;;;;1.7;1;;;;;;;;;;;;;
2022/09/13 01:39:26;;;;;;;2.5;1.1;;;;;;;;;;;;;
2022/09/13 01:41:52;;;;;;;1.4;1;;;;;;;;;;;;;
2022/09/13 01:44:16;;;;;;;1.3;0.8;;;;;;;;;;;;;
2022/09/13 01:46:44;;;;;;;1.2;0.7;;;;;;;;;;;;;
2022/09/13 01:49:09;;;;;;;4.3;1;;;;;;;;;;;;;
2022/09/13 01:51:38;;;;;;;1.2;0.9;;;;;;;;;;;;;
2022/09/13 01:54:04;;;;;;;0.9;0.9;;;;;;;;;;;;;
2022/09/13 01:56:28;;;;;;;2;1.2;;;;;;;;;;;;;
2022/09/13 01:58:54;;;;;;;1.9;1.2;;;;;;;;;;;;;
2022/09/13 02:01:19;;;;;;;2.3;1;;;;;;;;;;;;;
2022/09/13 02:03:44;;;;;;;0.8;0.8;;;;;;;;;;;;;
2022/09/13 02:06:09;;;;;;;2;1;;;;;;;;;;;;;
2022/09/13 02:08:34;;;;;;;2;1;;;;;;;;;;;;;
2022/09/13 02:10:59;;;;;;;1.2;0.8;;;;;;;;;;;;;
2022/09/13 02:13:24;;;;;;;1.2;1.1;;;;;;;;;;;;;
2022/09/13 02:15:49;;;;;;;1.3;1;;;;;;;;;;;;;
2022/09/13 02:18:16;;;;;;;3.2;1.1;;;;;;;;;;;;;
2022/09/13 02:20:40;;;;;;;0.8;0.8;;;;;;;;;;;;;
2022/09/13 02:23:06;;;;;;;2.3;0.9;;;;;;;;;;;;;
2022/09/13 02:25:31;;;;;;;2.2;0.9;;;;;;;;;;;;;
2022/09/13 02:28:00;;;;;;;1.2;0.7;;;;;;;;;;;;;
2022/09/13 02:30:25;;;;;;;1;0.9;;;;;;;;;;;;;
2022/09/13 02:32:51;;;;;;;1.6;1.1;;;;;;;;;;;;;
2022/09/13 02:35:16;;;;;;;1.4;0.9;;;;;;;;;;;;;
2022/09/13 02:37:44;;;;;;;1.1;0.8;;;;;;;;;;;;;
2022/09/13 02:40:11;;;;;;;1.2;1;;;;;;;;;;;;;
2022/09/13 02:42:37;;;;;;;1.9;1;;;;;;;;;;;;;
2022/09/13 02:45:02;;;;;;;0.9;0.8;;;;;;;;;;;;;
2022/09/13 02:47:29;;;;;;;2;0.8;;;;;;;;;;;;;
2022/09/13 02:49:54;;;;;;;0.8;0.8;;;;;;;;;;;;;
2022/09/13 02:52:21;;;;;;;2.8;0.9;;;;;;;;;;;;;
2022/09/13 02:54:46;;;;;;;2.8;1.1;;;;;;;;;;;;;
2022/09/13 02:57:13;;;;;;;2.1;0.9;;;;;;;;;;;;;
2022/09/13 02:59:38;;;;;;;1.9;1.1;;;;;;;;;;;;;
2022/09/13 03:02:04;;;;;;;1.2;0.9;;;;;;;;;;;;;
2022/09/13 03:04:29;;;;;;;2.2;1;;;;;;;;;;;;;
2022/09/13 03:06:55;;;;;;;2.1;0.9;;;;;;;;;;;;;
2022/09/13 03:09:20;;;;;;;1.1;1;;;;;;;;;;;;;
2022/09/13 03:11:45;;;;;;;1.2;0.9;;;;;;;;;;;;;
2022/09/13 03:14:10;;;;;;;1.8;1.2;;;;;;;;;;;;;
2022/09/13 03:16:37;;;;;;;1;0.8;;;;;;;;;;;;;
2022/09/13 03:19:02;;;;;;;0.9;0.7;;;;;;;;;;;;;
2022/09/13 03:21:27;;;;;;;0.8;0.8;;;;;;;;;;;;;
2022/09/13 03:23:52;;;;;;;1.3;0.8;;;;;;;;;;;;;
2022/09/13 03:26:17;;;;;;;1.1;1;;;;;;;;;;;;;
2022/09/13 03:28:42;;;;;;;0.9;0.9;;;;;;;;;;;;;
2022/09/13 03:31:07;;;;;;;0.9;0.8;;;;;;;;;;;;;
2022/09/13 03:33:33;;;;;;;3.7;1;;;;;;;;;;;;;
2022/09/13 03:35:58;;;;;;;1.3;0.9;;;;;;;;;;;;;
2022/09/13 03:38:23;;;;;;;1.2;1.1;;;;;;;;;;;;;
2022/09/13 03:40:49;;;;;;;2.2;0.9;;;;;;;;;;;;;
2022/09/13 03:43:13;;;;;;;1.4;1;;;;;;;;;;;;;
2022/09/13 03:45:38;;;;;;;2.9;0.9;;;;;;;;;;;;;
2022/09/13 03:48:03;;;;;;;1.2;1;;;;;;;;;;;;;
2022/09/13 03:50:30;;;;;;;2.7;1;;;;;;;;;;;;;
2022/09/13 03:53:13;;;;;;;1.9;1;;;;;;;;;;;;;
2022/09/13 03:55:38;;;;;;;1.6;0.9;;;;;;;;;;;;;
2022/09/13 03:58:03;;;;;;;2.8;0.9;;;;;;;;;;;;;
2022/09/13 04:02:31;;;;;;;4.1;1.2;;;;;;;10.61;91.48145;935.6716;;;;
2022/09/13 04:05:01;;;;;;;1.2;0.8;;;;;;;10.59;91.96875;935.6261;;;;
2022/09/13 04:07:26;;;;;;;1.5;0.9;;;;;;;10.71;91.35547;935.5497;;;;
2022/09/13 04:09:51;;;;;;;1.8;1;;;;;;;10.86;91.03223;935.6119;;;;
2022/09/13 04:12:16;;;;;;;2.1;0.7;;;;;;;10.86;90.33496;935.5769;;;;
2022/09/13 04:14:44;;;;;;;1.6;0.9;;;;;;;10.95;89.82813;935.6114;;;;
2022/09/13 04:17:12;;;;;;;2.2;0.9;;;;;;;11;89.46191;935.5327;;;;
2022/09/13 04:19:37;;;;;;;0.7;0.7;;;;;;;11.05;89.05078;935.6105;;;;
2022/09/13 04:22:06;;;;;;;2.5;0.9;;;;;;;11.01;89.39355;935.5655;;;;
2022/09/13 04:24:31;;;;;;;1;0.7;;;;;;;10.98;89.02246;935.5064;;;;
2022/09/13 04:27:03;;;;;;;2.5;1.1;;;;;;;10.89;89.55273;935.5666;;;;
2022/09/13 04:29:27;;;;;;;3.5;1.1;;;;;;;10.75;90.10645;935.584;;;;
2022/09/13 04:31:54;;;;;;;1.1;0.9;;;;;;;10.65;90.65723;935.6139;;;;
2022/09/13 04:34:34;;;;;;;2.3;0.9;;;;;;;10.69;90.34473;935.677;;;;
2022/09/13 04:37:03;;;;;;;1.3;0.9;;;;;;;10.45;91.67676;935.6556;;;;
2022/09/13 04:39:28;;;;;;;1.1;1;;;;;;;10.33;92.5752;935.6896;;;;
2022/09/13 04:42:01;;;;;;;2.3;1.1;;;;;;;10.26;93.09766;935.7489;;;;
2022/09/13 04:44:24;;;;;;;2.6;1.2;;;;;;;10.36;92.70605;935.7439;;;;
2022/09/13 04:46:54;;;;;;;1.9;1.1;;;;;;;10.29;93.16992;935.7109;;;;
2022/09/13 04:49:18;;;;;;;1.5;1;;;;;;;10.2;93.7002;935.7184;;;;
2022/09/13 04:51:46;;;;;;;2.7;1.1;;;;;;;10.33;93.09961;935.7421;;;;
2022/09/13 04:54:11;;;;;;;5;1.4;;;;;;;10.27;93.44141;935.7051;;;;
2022/09/13 04:56:39;;;;;;;1.7;1.1;;;;;;;10.29;93.55957;935.6719;;;;
2022/09/13 04:59:04;;;;;;;2.2;1.3;;;;;;;10.46;92.78418;935.748;;;;
2022/09/13 05:01:34;;;;;;;2.6;1.6;;;;;;;10.56;92.12305;935.7126;;;;
2022/09/13 05:03:59;;;;;;;2.2;1.3;;;;;;;10.5;91.90332;935.7712;;;;
2022/09/13 05:06:25;;;;;;;2.5;1.1;;;;;;;10.39;92.61133;935.7281;;;;
2022/09/13 05:08:50;;;;;;;2.8;1.1;;;;;;;10.44;92.22363;935.7542;;;;
2022/09/13 05:11:19;;;;;;;2.2;1.1;;;;;;;10.4;92.68164;935.7012;;;;
2022/09/13 05:13:44;;;;;;;4.6;1.2;;;;;;;10.51;91.97656;935.6233;;;;
2022/09/13 05:16:16;;;;;;;1.6;1;;;;;;;10.41;92.70605;935.5789;;;;
2022/09/13 05:18:46;;;;;;;2.2;1.3;;;;;;;10.53;92.06934;935.687;;;;
2022/09/13 05:21:11;;;;;;;4.2;1;;;;;;;10.56;91.79199;935.645;;;;
2022/09/13 05:23:41;;;;;;;3.4;1.5;;;;;;;10.72;90.99023;935.7042;;;;
2022/09/13 05:26:11;;;;;;;3.1;1.2;;;;;;;10.73;90.56152;935.6548;;;;
2022/09/13 05:28:42;;;;;;;1.2;1.1;;;;;;;10.86;90.45117;935.6788;;;;
2022/09/13 05:31:15;;;;;;;2.5;1.2;;;;;;;11.07;89.25781;935.7078;;;;
2022/09/13 05:33:40;;;;;;;4;1.6;;;;;;;11;89.42578;935.7247;;;;
2022/09/13 05:36:05;;;;;;;3.2;1.4;;;;;;;11.01;89.23535;935.72;;;;
2022/09/13 05:38:37;;;;;;;2.2;1.3;;;;;;;10.99;89.73438;935.7064;;;;
2022/09/13 05:41:09;;;;;;;3.9;1.6;;;;;;;11.12;89.77246;935.7485;;;;
2022/09/13 05:43:41;;;;;;;2.9;1.3;;;;;;;11.74;87.88477;935.7857;;;;
2022/09/13 05:46:10;;;;;;;4.4;1.8;;;;;;;;;;;;;
2022/09/13 05:48:35;;;;;;;2.8;1.5;;;;;;;;;;;;;
2022/09/13 05:51:00;;;;;;;3.9;1.2;;;;;;;;;;;;;
2022/09/13 05:53:25;;;;;;;3.4;1.3;;;;;;;;;;;;;
2022/09/13 05:55:51;;;;;;;3;1.1;;;;;;;;;;;;;
2022/09/13 05:58:16;;;;;;;5.3;1;;;;;;;;;;;;;
2022/09/13 06:00:42;;;;;;;2.9;1;;;;;;;;;;;;;
2022/09/13 06:03:07;;;;;;;1.8;1;;;;;;;;;;;;;
2022/09/13 06:05:32;;;;;;;2.1;1;;;;;;;;;;;;;
2022/09/13 06:07:58;;;;;;;5.4;1.5;;;;;;;;;;;;;
2022/09/13 06:10:23;;;;;;;2.7;0.8;;;;;;;;;;;;;
2022/09/13 06:12:49;;;;;;;0.9;0.6;;;;;;;;;;;;;
2022/09/13 06:15:14;;;;;;;2.5;0.8;;;;;;;;;;;;;
2022/09/13 06:17:39;;;;;;;1.4;0.8;;;;;;;;;;;;;
2022/09/13 06:20:04;;;;;;;0.9;0.6;;;;;;;;;;;;;
2022/09/13 06:22:32;;;;;;;1.5;0.8;;;;;;;;;;;;;
2022/09/13 06:24:56;;;;;;;4;1.6;;;;;;;;;;;;;
2022/09/13 06:27:21;;;;;;;2.2;1.2;;;;;;;;;;;;;
2022/09/13 06:29:47;;;;;;;4.5;1.3;;;;;;;;;;;;;
2022/09/13 06:32:12;;;;;;;2.8;1.2;;;;;;;;;;;;;
2022/09/13 06:34:39;;;;;;;2.3;0.9;;;;;;;;;;;;;
2022/09/13 06:37:04;;;;;;;4;0.9;;;;;;;;;;;;;
2022/09/13 06:39:33;;;;;;;1.2;0.9;;;;;;;;;;;;;
2022/09/13 06:41:56;;;;;;;4.7;1.2;;;;;;;;;;;;;
2022/09/13 06:44:22;;;;;;;2.9;1.2;;;;;;;;;;;;;
2022/09/13 06:46:49;;;;;;;1.4;1;;;;;;;;;;;;;
2022/09/13 06:49:14;;;;;;;3.6;1.1;;;;;;;;;;;;;
2022/09/13 06:51:39;;;;;;;3.3;1.1;;;;;;;;;;;;;
2022/09/13 06:54:04;;;;;;;2.1;1.1;;;;;;;;;;;;;
2022/09/13 06:56:31;;;;;;;2.8;1;;;;;;;;;;;;;
2022/09/13 06:58:56;;;;;;;1.7;1;;;;;;;;;;;;;
2022/09/13 07:01:21;;;;;;;4.1;0.9;;;;;;;;;;;;;
2022/09/13 07:03:46;;;;;;;2.3;1;;;;;;;;;;;;;
2022/09/13 07:06:12;;;;;;;2.9;0.7;;;;;;;;;;;;;
2022/09/13 07:08:37;;;;;;;0.7;0.6;;;;;;;;;;;;;
2022/09/13 07:11:03;;;;;;;2.3;1;;;;;;;;;;;;;
2022/09/13 07:13:29;;;;;;;0.6;0.4;;;;;;;;;;;;;
2022/09/13 07:15:56;;;;;;;1.6;0.7;;;;;;;;;;;;;
2022/09/13 07:18:20;;;;;;;2.3;0.7;;;;;;;;;;;;;
2022/09/13 07:20:47;;;;;;;1.2;0.6;;;;;;;;;;;;;
2022/09/13 07:23:12;;;;;;;1;0.3;;;;;;;;;;;;;
2022/09/13 07:25:38;;;;;;;1.9;0.5;;;;;;;;;;;;;
2022/09/13 07:28:03;;;;;;;0.9;0.5;;;;;;;;;;;;;
2022/09/13 07:30:28;;;;;;;2.1;0.5;;;;;;;;;;;;;
2022/09/13 07:32:53;;;;;;;1.4;0.4;;;;;;;;;;;;;
2022/09/13 07:35:18;;;;;;;0.3;0.3;;;;;;;;;;;;;
2022/09/13 07:37:46;;;;;;;1.6;0.6;;;;;;;;;;;;;
2022/09/13 07:40:10;;;;;;;0.8;0.6;;;;;;;;;;;;;
2022/09/13 07:42:36;;;;;;;1.3;0.5;;;;;;;;;;;;;
2022/09/13 07:45:01;;;;;;;0.8;0.5;;;;;;;;;;;;;
2022/09/13 07:47:26;;;;;;;0.7;0.5;;;;;;;;;;;;;
2022/09/13 07:49:52;;;;;;;2.8;0.6;;;;;;;;;;;;;
2022/09/13 07:52:19;;;;;;;3.3;0.6;;;;;;;;;;;;;
2022/09/13 07:54:44;;;;;;;0.4;0.4;;;;;;;;;;;;;
2022/09/13 07:57:10;;;;;;;2;0.6;;;;;;;;;;;;;
2022/09/13 07:59:35;;;;;;;1.3;0.5;;;;;;;;;;;;;
2022/09/13 08:02:02;;;;;;;1.4;0.6;;;;;;;;;;;;;
2022/09/13 08:04:27;;;;;;;1.4;0.5;;;;;;;;;;;;;
2022/09/13 08:06:52;;;;;;;0.8;0.6;;;;;;;;;;;;;
2022/09/13 08:09:17;;;;;;;0.5;0.5;;;;;;;;;;;;;
2022/09/13 08:11:43;;;;;;;1.5;0.9;;;;;;;;;;;;;
2022/09/13 08:14:08;;;;;;;0.5;0.5;;;;;;;;;;;;;
2022/09/13 08:16:34;;;;;;;0.5;0.4;;;;;;;;;;;;;
2022/09/13 08:19:08;;;;;;;0.7;0.7;;;;;;;;;;;;;
2022/09/13 08:21:33;;;;;;;0.5;0.4;;;;;;;;;;;;;
2022/09/13 08:23:59;;;;;;;1.4;0.4;;;;;;;;;;;;;
2022/09/13 08:26:23;;;;;;;0.5;0.5;;;;;;;;;;;;;
2022/09/13 08:28:48;;;;;;;0.4;0.4;;;;;;;;;;;;;
2022/09/13 08:31:15;;;;;;;2.6;0.5;;;;;;;;;;;;;
2022/09/13 08:33:41;;;;;;;0.4;0.4;;;;;;;;;;;;;
2022/09/13 08:36:06;;;;;;;0.7;0.5;;;;;;;;;;;;;
2022/09/13 08:38:31;;;;;;;1;0.4;;;;;;;;;;;;;
2022/09/13 08:40:56;;;;;;;0.5;0.5;;;;;;;;;;;;;
2022/09/13 08:43:23;;;;;;;3.6;0.9;;;;;;;;;;;;;
2022/09/13 08:45:49;;;;;;;0.7;0.5;;;;;;;;;;;;;
2022/09/13 08:48:15;;;;;;;0.7;0.5;;;;;;;;;;;;;
2022/09/13 08:50:41;;;;;;;0.8;0.4;;;;;;;;;;;;;
2022/09/13 08:53:07;;;;;;;0.6;0.4;;;;;;;;;;;;;
2022/09/13 08:55:33;;;;;;;1.8;0.5;;;;;;;;;;;;;
2022/09/13 08:57:57;;;;;;;1.5;0.5;;;;;;;;;;;;;
2022/09/13 09:00:23;;;;;;;0.8;0.5;;;;;;;;;;;;;
2022/09/13 09:02:48;;;;;;;2.2;0.6;;;;;;;;;;;;;
2022/09/13 09:05:16;;;;;;;1;0.5;;;;;;;;;;;;;
2022/09/13 09:07:41;;;;;;;0.7;0.4;;;;;;;;;;;;;
2022/09/13 09:10:06;;;;;;;1;0.5;;;;;;;;;;;;;
2022/09/13 09:12:32;;;;;;;0.7;0.5;;;;;;;;;;;;;
2022/09/13 09:14:57;;;;;;;0.6;0.5;;;;;;;;;;;;;
2022/09/13 09:17:22;;;;;;;1.4;0.6;;;;;;;;;;;;;
2022/09/13 09:19:47;;;;;;;1.5;0.5;;;;;;;;;;;;;
2022/09/13 09:22:15;;;;;;;0.7;0.6;;;;;;;;;;;;;
2022/09/13 09:24:40;;;;;;;0.4;0.4;;;;;;;;;;;;;
2022/09/13 09:27:05;;;;;;;1.4;0.4;;;;;;;;;;;;;
2022/09/13 09:29:31;;;;;;;0.7;0.4;;;;;;;;;;;;;
2022/09/13 09:31:56;;;;;;;0.5;0.5;;;;;;;;;;;;;
2022/09/13 09:34:22;;;;;;;1.8;0.7;;;;;;;;;;;;;
2022/09/13 09:36:46;;;;;;;0.8;0.8;;;;;;;;;;;;;
2022/09/13 09:39:11;;;;;;;2.1;0.6;;;;;;;;;;;;;
2022/09/13 09:41:39;;;;;;;1.4;0.5;;;;;;;;;;;;;
2022/09/13 09:44:04;;;;;;;1.2;0.7;;;;;;;;;;;;;
2022/09/13 09:46:31;;;;;;;2;0.7;;;;;;;;;;;;;
2022/09/13 09:48:56;;;;;;;3.8;0.6;;;;;;;;;;;;;
2022/09/13 09:51:22;;;;;;;0.8;0.7;;;;;;;;;;;;;
2022/09/13 09:54:04;;;;;;;2.6;0.9;;;;;;;;;;;;;
2022/09/13 09:56:31;;;;;;;2;0.7;;;;;;;;;;;;;
2022/09/13 09:58:57;;;;;;;1.5;0.7;;;;;;;;;;;;;
2022/09/13 10:01:22;;;;;;;4.1;0.6;;;;;;;;;;;;;
2022/09/13 10:03:49;;;;;;;1.2;0.5;;;;;;;;;;;;;
2022/09/13 10:06:15;;;;;;;1.1;0.7;;;;;;;;;;;;;
2022/09/13 10:08:40;;;;;;;2.2;0.6;;;;;;;;;;;;;
2022/09/13 10:11:05;;;;;;;1.2;0.4;;;;;;;;;;;;;
2022/09/13 10:13:33;;;;;;;1.1;0.7;;;;;;;;;;;;;
2022/09/13 10:15:58;;;;;;;0.5;0.5;;;;;;;;;;;;;
2022/09/13 10:18:22;;;;;;;1.2;0.5;;;;;;;;;;;;;
2022/09/13 10:20:48;;;;;;;0.5;0.4;;;;;;;;;;;;;
2022/09/13 10:23:13;;;;;;;1.3;0.5;;;;;;;;;;;;;
2022/09/13 10:25:39;;;;;;;0.7;0.5;;;;;;;;;;;;;
2022/09/13 10:28:04;;;;;;;1.3;0.5;;;;;;;;;;;;;
2022/09/13 10:30:29;;;;;;;0.7;0.4;;;;;;;;;;;;;
2022/09/13 10:32:55;;;;;;;1.3;0.5;;;;;;;;;;;;;
2022/09/13 10:35:20;;;;;;;0.7;0.4;;;;;;;;;;;;;
2022/09/13 10:37:48;;;;;;;0.6;0.6;;;;;;;;;;;;;
2022/09/13 10:40:13;;;;;;;0.8;0.6;;;;;;;;;;;;;
2022/09/13 10:42:39;;;;;;;0.7;0.7;;;;;;;;;;;;;
2022/09/13 10:45:04;;;;;;;0.6;0.5;;;;;;;;;;;;;
2022/09/13 10:47:30;;;;;;;0.4;0.4;;;;;;;;;;;;;
2022/09/13 10:49:54;;;;;;;0.6;0.6;;;;;;;;;;;;;
2022/09/13 10:52:19;;;;;;;0.9;0.5;;;;;;;;;;;;;
2022/09/13 10:54:44;;;;;;;0.9;0.4;;;;;;;;;;;;;
2022/09/13 10:57:10;;;;;;;0.8;0.6;;;;;;;;;;;;;
2022/09/13 10:59:35;;;;;;;0.5;0.5;;;;;;;;;;;;;
2022/09/13 11:02:00;;;;;;;0.4;0.4;;;;;;;;;;;;;
2022/09/13 11:04:25;;;;;;;0.8;0.6;;;;;;;;;;;;;
2022/09/13 11:06:50;;;;;;;0.5;0.5;;;;;;;;;;;;;
2022/09/13 11:09:15;;;;;;;0.5;0.5;;;;;;;;;;;;;
2022/09/13 11:11:41;;;;;;;1.3;0.6;;;;;;;;;;;;;
2022/09/13 11:14:06;;;;;;;0.6;0.6;;;;;;;;;;;;;
2022/09/13 11:16:31;;;;;;;2.1;0.5;;;;;;;;;;;;;
2022/09/13 11:18:56;;;;;;;1.7;0.7;;;;;;;;;;;;;
2022/09/13 11:21:21;;;;;;;0.7;0.6;;;;;;;;;;;;;
2022/09/13 11:23:46;;;;;;;0.6;0.6;;;;;;;;;;;;;
2022/09/13 11:26:11;;;;;;;0.6;0.5;;;;;;;;;;;;;
2022/09/13 11:28:37;;;;;;;0.7;0.5;;;;;;;;;;;;;
2022/09/13 11:31:05;;;;;;;0.6;0.6;;;;;;;;;;;;;
2022/09/13 11:33:30;;;;;;;2.3;0.5;;;;;;;;;;;;;
2022/09/13 11:35:55;;;;;;;2.3;0.6;;;;;;;;;;;;;
2022/09/13 11:38:20;;;;;;;1;0.4;;;;;;;;;;;;;
2022/09/13 11:40:45;;;;;;;0.9;0.6;;;;;;;;;;;;;
2022/09/13 11:43:11;;;;;;;0.5;0.5;;;;;;;;;;;;;
2022/09/13 11:45:38;;;;;;;0.9;0.6;;;;;;;;;;;;;
2022/09/13 11:48:03;;;;;;;2.3;0.5;;;;;;;;;;;;;
2022/09/13 11:50:29;;;;;;;0.5;0.5;;;;;;;;;;;;;
2022/09/13 11:52:57;;;;;;;0.4;0.4;;;;;;;;;;;;;
2022/09/13 11:55:21;;;;;;;1.1;0.4;;;;;;;;;;;;;
2022/09/13 11:57:49;;;;;;;0.6;0.6;;;;;;;;;;;;;
2022/09/13 12:00:13;;;;;;;0.5;0.5;;;;;;;;;;;;;
2022/09/13 12:02:38;;;;;;;0.8;0.6;;;;;;;;;;;;;
2022/09/13 12:05:04;;;;;;;0.8;0.4;;;;;;;;;;;;;
2022/09/13 12:07:29;;;;;;;0.5;0.4;;;;;;;;;;;;;
2022/09/13 12:09:58;;;;;;;0.8;0.6;;;;;;;;;;;;;
2022/09/13 12:12:25;;;;;;;1.2;0.6;;;;;;;;;;;;;
2022/09/13 12:14:49;;;;;;;1.5;0.9;;;;;;;;;;;;;
2022/09/13 12:17:19;;;;;;;2.6;0.5;;;;;;;;;;;;;
2022/09/13 12:19:44;;;;;;;0.5;0.5;;;;;;;;;;;;;
2022/09/13 12:22:09;;;;;;;1.2;0.6;;;;;;;;;;;;;
2022/09/13 12:24:34;;;;;;;0.4;0.4;;;;;;;;;;;;;
2022/09/13 12:26:59;;;;;;;0.4;0.4;;;;;;;;;;;;;
2022/09/13 12:31:49;;;;;;;0.5;0.4;;;;;;;;;;;;;
2022/09/13 12:34:14;;;;;;;0.6;0.6;;;;;;;;;;;;;
2022/09/13 12:36:39;;;;;;;0.3;0.3;;;;;;;;;;;;;
2022/09/13 12:39:05;;;;;;;0.6;0.5;;;;;;;;;;;;;
2022/09/13 12:41:30;;;;;;;1;0.3;;;;;;;;;;;;;
2022/09/13 12:43:55;;;;;;;0.9;0.6;;;;;;;;;;;;;
2022/09/13 12:46:30;;;;;;;1.1;0.5;;;;;;;;;;;;;
2022/09/13 12:49:32;;;;;;;2.9;0.7;;;;;;;;;;;;;
2022/09/13 12:51:45;;;;;;;1.3;0.5;;;;;;;;;;;;;
2022/09/13 12:54:12;;;;;;;0.6;0.4;;;;;;;;;;;;;
2022/09/13 12:56:43;;;;;;;2;0.6;;;;;;;;;;;;;
2022/09/13 12:59:07;;;;;;;1.2;0.6;;;;;;;;;;;;;
2022/09/13 13:01:35;;;;;;;0.6;0.5;;;;;;;;;;;;;
2022/09/13 13:04:00;;;;;;;0.4;0.4;;;;;;;;;;;;;
2022/09/13 13:06:25;;;;;;;0.4;0.4;;;;;;;;;;;;;
2022/09/13 13:08:50;;;;;;;0.6;0.6;;;;;;;;;;;;;
2022/09/13 13:11:18;;;;;;;1.5;0.5;;;;;;;;;;;;;
2022/09/13 13:13:43;;;;;;;1.2;0.5;;;;;;;;;;;;;
2022/09/13 13:16:11;;;;;;;1;0.5;;;;;;;;;;;;;
2022/09/13 13:18:37;;;;;;;1.4;0.6;;;;;;;;;;;;;
2022/09/13 13:21:02;;;;;;;1;0.5;;;;;;;;;;;;;
2022/09/13 13:23:29;;;;;;;0.6;0.5;;;;;;;;;;;;;
2022/09/13 13:25:54;;;;;;;0.6;0.5;;;;;;;;;;;;;
2022/09/13 13:28:19;;;;;;;1;0.6;;;;;;;;;;;;;
2022/09/13 13:30:45;;;;;;;1;0.7;;;;;;;;;;;;;
2022/09/13 13:33:10;;;;;;;1.4;0.7;;;;;;;;;;;;;
2022/09/13 13:35:35;;;;;;;1.6;0.5;;;;;;;;;;;;;
2022/09/13 13:38:00;;;;;;;0.8;0.5;;;;;;;;;;;;;
2022/09/13 13:40:27;;;;;;;0.9;0.5;;;;;;;;;;;;;
2022/09/13 13:42:50;;;;;;;0.7;0.5;;;;;;;;;;;;;
2022/09/13 13:45:19;;;;;;;0.5;0.5;;;;;;;;;;;;;
2022/09/13 13:47:44;;;;;;;0.7;0.5;;;;;;;;;;;;;
2022/09/13 13:50:12;;;;;;;1.4;0.5;;;;;;;;;;;;;
2022/09/13 13:52:38;;;;;;;1;0.6;;;;;;;;;;;;;
2022/09/13 13:55:03;;;;;;;0.5;0.5;;;;;;;;;;;;;
2022/09/13 13:57:31;;;;;;;2.2;0.7;;;;;;;;;;;;;
2022/09/13 13:59:56;;;;;;;0.5;0.5;;;;;;;;;;;;;
2022/09/13 14:02:21;;;;;;;1.2;0.5;;;;;;;;;;;;;
2022/09/13 14:04:47;;;;;;;0.9;0.5;;;;;;;;;;;;;
2022/09/13 14:07:12;;;;;;;1.1;0.5;;;;;;;;;;;;;
2022/09/13 14:09:40;;;;;;;0.5;0.5;;;;;;;;;;;;;
2022/09/13 14:12:06;;;;;;;1.9;0.6;;;;;;;;;;;;;
2022/09/13 14:14:31;;;;;;;0.5;0.5;;;;;;;;;;;;;
2022/09/13 14:16:56;;;;;;;1.1;0.7;;;;;;;;;;;;;
2022/09/13 14:19:23;;;;;;;1.1;0.7;;;;;;;;;;;;;
2022/09/13 14:21:48;;;;;;;0.9;0.5;;;;;;;;;;;;;
2022/09/13 14:24:13;;;;;;;0.6;0.6;;;;;;;;;;;;;
2022/09/13 14:26:39;;;;;;;0.6;0.6;;;;;;;;;;;;;
2022/09/13 14:29:20;;;;;;;0.6;0.5;;;;;;;;;;;;;
2022/09/13 14:31:39;;;;;;;1.7;0.7;;;;;;;;;;;;;
2022/09/13 14:34:04;;;;;;;0.9;0.6;;;;;;;;;;;;;
2022/09/13 14:36:29;;;;;;;0.9;0.6;;;;;;;;;;;;;
2022/09/13 14:38:54;;;;;;;1;0.6;;;;;;;;;;;;;
2022/09/13 14:41:33;;;;;;;0.5;0.4;;;;;;;;;;;;;
2022/09/13 14:43:58;;;;;;;1.2;0.6;;;;;;;;;;;;;
2022/09/13 14:46:25;;;;;;;1.2;0.5;;;;;;;;;;;;;
2022/09/13 14:48:50;;;;;;;1.2;0.9;;;;;;;;;;;;;
2022/09/13 14:51:16;;;;;;;0.9;0.8;;;;;;;;;;;;;
2022/09/13 14:53:40;;;;;;;1.3;0.7;;;;;;;;;;;;;
2022/09/13 14:56:05;;;;;;;1.4;0.8;;;;;;;;;;;;;
2022/09/13 14:58:30;;;;;;;1.2;0.8;;;;;;;;;;;;;
2022/09/13 15:00:55;;;;;;;0.6;0.6;;;;;;;;;;;;;
2022/09/13 15:03:20;;;;;;;0.9;0.8;;;;;;;;;;;;;
2022/09/13 15:05:50;;;;;;;0.8;0.6;;;;;;;;;;;;;
2022/09/13 15:08:15;;;;;;;1.2;0.6;;;;;;;;;;;;;
2022/09/13 15:10:40;;;;;;;0.6;0.6;;;;;;;;;;;;;
2022/09/13 15:13:05;;;;;;;1.6;0.8;;;;;;;;;;;;;
2022/09/13 15:15:30;;;;;;;2.7;0.9;;;;;;;;;;;;;
2022/09/13 15:17:58;;;;;;;1.8;0.7;;;;;;;;;;;;;
2022/09/13 15:20:23;;;;;;;1.5;0.6;;;;;;;;;;;;;
2022/09/13 15:22:49;;;;;;;1.7;0.7;;;;;;;;;;;;;
2022/09/13 15:25:14;;;;;;;2.4;0.6;;;;;;;;;;;;;
2022/09/13 15:27:41;;;;;;;1.3;0.7;;;;;;;;;;;;;
2022/09/13 15:30:05;;;;;;;1.8;1;;;;;;;;;;;;;
2022/09/13 15:32:30;;;;;;;0.9;0.6;;;;;;;;;;;;;
2022/09/13 15:34:55;;;;;;;2;1;;;;;;;;;;;;;
2022/09/13 15:37:20;;;;;;;2.9;0.8;;;;;;;;;;;;;
2022/09/13 15:39:46;;;;;;;1.5;0.7;;;;;;;;;;;;;
2022/09/13 15:42:11;;;;;;;0.8;0.6;;;;;;;;;;;;;
2022/09/13 15:44:36;;;;;;;0.9;0.6;;;;;;;;;;;;;
2022/09/13 15:47:03;;;;;;;1.6;0.8;;;;;;;;;;;;;
2022/09/13 15:49:27;;;;;;;1.3;0.6;;;;;;;;;;;;;
2022/09/13 15:51:55;;;;;;;0.8;0.7;;;;;;;;;;;;;
2022/09/13 15:54:22;;;;;;;1.1;0.8;;;;;;;;;;;;;
2022/09/13 15:56:47;;;;;;;0.9;0.5;;;;;;;;;;;;;
2022/09/13 15:59:12;;;;;;;0.7;0.6;;;;;;;;;;;;;
2022/09/13 16:01:37;;;;;;;0.8;0.7;;;;;;;;;;;;;
2022/09/13 16:04:06;;;;;;;1.6;0.6;;;;;;;;;;;;;
2022/09/13 16:06:31;;;;;;;0.8;0.6;;;;;;;;;;;;;
2022/09/13 16:08:58;;;;;;;2.1;1;;;;;;;;;;;;;
2022/09/13 16:11:21;;;;;;;2.5;1;;;;;;;;;;;;;
2022/09/13 16:13:47;;;;;;;2.4;0.9;;;;;;;;;;;;;
2022/09/13 16:16:12;;;;;;;1.4;0.7;;;;;;;;;;;;;
2022/09/13 16:18:38;;;;;;;1.9;1.1;;;;;;;;;;;;;
2022/09/13 16:21:03;;;;;;;2;1;;;;;;;;;;;;;
2022/09/13 16:23:29;;;;;;;2.5;1.2;;;;;;;;;;;;;
2022/09/13 16:25:54;;;;;;;1.6;0.9;;;;;;;;;;;;;
2022/09/13 16:28:21;;;;;;;2.2;1;;;;;;;;;;;;;
2022/09/13 16:30:46;;;;;;;3.6;1.1;;;;;;;;;;;;;
2022/09/13 16:33:12;;;;;;;2.2;1.2;;;;;;;;;;;;;
2022/09/13 16:35:37;;;;;;;1.9;1.2;;;;;;;;;;;;;
2022/09/13 16:38:02;;;;;;;1.1;0.8;;;;;;;;;;;;;
2022/09/13 16:40:45;;;;;;;1.9;1.1;;;;;;;;;;;;;
2022/09/13 16:42:53;;;;;;;3;1.5;;;;;;;;;;;;;
2022/09/13 16:45:17;;;;;;;2.4;0.9;;;;;;;;;;;;;
2022/09/13 16:47:43;;;;;;;2.7;1.3;;;;;;;;;;;;;
2022/09/13 16:50:19;;;;;;;3.8;1.1;;;;;;;;;;;;;
2022/09/13 16:52:44;;;;;;;2.9;1.1;;;;;;;;;;;;;
2022/09/13 16:55:10;;;;;;;2.8;1.6;;;;;;;;;;;;;
2022/09/13 16:57:36;;;;;;;2.2;1.1;;;;;;;;;;;;;
2022/09/13 17:00:02;;;;;;;4;1.3;;;;;;;;;;;;;
2022/09/13 17:02:26;;;;;;;2;1.2;;;;;;;;;;;;;
2022/09/13 17:04:51;;;;;;;3.3;1.4;;;;;;;;;;;;;
2022/09/13 17:07:16;;;;;;;3.4;1.6;;;;;;;;;;;;;
2022/09/13 17:09:41;;;;;;;2.4;1.2;;;;;;;;;;;;;
2022/09/13 17:12:06;;;;;;;3.2;1.9;;;;;;;;;;;;;
2022/09/13 17:14:33;;;;;;;1.7;1.5;;;;;;;;;;;;;
2022/09/13 17:16:58;;;;;;;3.1;1.6;;;;;;;;;;;;;
2022/09/13 17:19:23;;;;;;;10.9;2.7;;;;;;;;;;;;;
2022/09/13 17:21:48;;;;;;;8.8;1.8;;;;;;;;;;;;;
2022/09/13 17:24:14;;;;;;;1.8;1.1;;;;;;;;;;;;;
2022/09/13 17:26:39;;;;;;;3.5;1.6;;;;;;;;;;;;;
2022/09/13 17:29:04;;;;;;;5.5;1.9;;;;;;;;;;;;;
2022/09/13 17:31:30;;;;;;;2.6;1.2;;;;;;;;;;;;;
2022/09/13 17:33:56;;;;;;;2.3;1.2;;;;;;;;;;;;;
2022/09/13 17:36:21;;;;;;;1.8;1.4;;;;;;;;;;;;;
2022/09/13 17:38:46;;;;;;;3.1;1.4;;;;;;;;;;;;;
2022/09/13 17:41:11;;;;;;;4;1.3;;;;;;;;;;;;;
2022/09/13 17:43:38;;;;;;;1.9;1.2;;;;;;;;;;;;;
2022/09/13 17:46:04;;;;;;;2.5;1.2;;;;;;;;;;;;;
2022/09/13 17:48:30;;;;;;;4.3;1.5;;;;;;;;;;;;;
2022/09/13 17:50:55;;;;;;;2.5;1.7;;;;;;;;;;;;;
2022/09/13 17:53:21;;;;;;;2.2;1.5;;;;;;;;;;;;;
2022/09/13 17:55:46;;;;;;;6.5;1.5;;;;;;;;;;;;;
2022/09/13 17:58:12;;;;;;;3;1.4;;;;;;;;;;;;;
2022/09/13 18:00:38;;;;;;;5;1.2;;;;;;;;;;;;;
2022/09/13 18:03:05;;;;;;;2.1;1.4;;;;;;;;;;;;;
2022/09/13 18:05:30;;;;;;;3.2;1.2;;;;;;;;;;;;;
2022/09/13 18:07:56;;;;;;;3.9;1.6;;;;;;;;;;;;;
2022/09/13 18:10:21;;;;;;;3.2;1.6;;;;;;;;;;;;;
2022/09/13 18:12:46;;;;;;;5.2;1.6;;;;;;;;;;;;;
2022/09/13 18:15:12;;;;;;;2.7;1.4;;;;;;;;;;;;;
2022/09/13 18:17:41;;;;;;;4.6;1.3;;;;;;;;;;;;;
2022/09/13 18:20:13;;;;;;;1.6;1.1;;;;;;;;;;;;;
2022/09/13 18:22:39;;;;;;;2.9;1.1;;;;;;;;;;;;;
2022/09/13 18:25:04;;;;;;;2.2;1.2;;;;;;;;;;;;;
2022/09/13 18:27:31;;;;;;;2.3;1.2;;;;;;;;;;;;;
2022/09/13 18:29:56;;;;;;;1.8;1.4;;;;;;;;;;;;;
2022/09/13 18:32:23;;;;;;;3;1.3;;;;;;;;;;;;;
2022/09/13 18:34:48;;;;;;;3.3;1.6;;;;;;;;;;;;;
2022/09/13 18:37:14;;;;;;;4.3;1.6;;;;;;;;;;;;;
2022/09/13 18:39:38;;;;;;;2.2;1.6;;;;;;;;;;;;;
2022/09/13 18:42:04;;;;;;;2.5;1.5;;;;;;;;;;;;;
2022/09/13 18:44:29;;;;;;;6.1;2;;;;;;;;;;;;;
2022/09/13 18:46:56;;;;;;;3.3;2;;;;;;;;;;;;;
2022/09/13 18:49:21;;;;;;;1.7;1.6;;;;;;;;;;;;;
2022/09/13 18:51:48;;;;;;;4.1;1.8;;;;;;;;;;;;;
2022/09/13 18:54:11;;;;;;;2.9;1.7;;;;;;;;;;;;;
2022/09/13 18:56:37;;;;;;;4.8;1.7;;;;;;;;;;;;;
2022/09/13 18:59:02;;;;;;;6.8;2;;;;;;;;;;;;;
2022/09/13 19:01:28;;;;;;;6.4;1.8;;;;;;;;;;;;;
2022/09/13 19:03:53;;;;;;;2.2;1.5;;;;;;;;;;;;;
2022/09/13 19:06:21;;;;;;;2;1.5;;;;;;;;;;;;;
2022/09/13 19:08:46;;;;;;;2.9;1.4;;;;;;;;;;;;;
2022/09/13 19:11:13;;;;;;;1.5;1.3;;;;;;;;;;;;;
2022/09/13 19:13:38;;;;;;;1.8;1.3;;;;;;;;;;;;;
2022/09/13 19:16:07;;;;;;;2.6;1.5;;;;;;;;;;;;;
2022/09/13 19:18:31;;;;;;;3;1.5;;;;;;;;;;;;;
2022/09/13 19:20:57;;;;;;;3.5;1.5;;;;;;;;;;;;;
2022/09/13 19:23:22;;;;;;;2.9;1.5;;;;;;;;;;;;;
2022/09/13 19:25:47;;;;;;;2.3;1.8;;;;;;;;;;;;;
2022/09/13 19:28:12;;;;;;;2.9;1.4;;;;;;;;;;;;;
2022/09/13 19:30:39;;;;;;;2.3;1.8;;;;;;;;;;;;;
2022/09/13 19:33:04;;;;;;;1.6;1.3;;;;;;;;;;;;;
2022/09/13 19:35:31;;;;;;;3.4;1.5;;;;;;;;;;;;;
2022/09/13 19:37:56;;;;;;;1.7;1.3;;;;;;;;;;;;;
2022/09/13 19:40:24;;;;;;;3.3;1.4;;;;;;;;;;;;;
2022/09/13 19:42:49;;;;;;;2.6;1.7;;;;;;;;;;;;;
2022/09/13 19:45:16;;;;;;;3.8;1.2;;;;;;;;;;;;;
2022/09/13 19:47:41;;;;;;;4.2;2;;;;;;;;;;;;;
2022/09/13 19:50:07;;;;;;;3.6;1.8;;;;;;;;;;;;;
2022/09/13 19:52:32;;;;;;;2.3;1.3;;;;;;;;;;;;;
2022/09/13 19:54:58;;;;;;;3.1;1.5;;;;;;;;;;;;;
2022/09/13 19:57:22;;;;;;;2.8;1.5;;;;;;;;;;;;;